createdAt,value
2023-02-16T00:02:10.773Z,100837.50
2023-02-16T00:04:38.318Z,100835.56
2023-02-16T00:07:06.301Z,100837.06
2023-02-16T00:09:34.890Z,100836.94
2023-02-16T00:12:02.357Z,100843.00
2023-02-16T00:14:29.960Z,100840.25
2023-02-16T00:16:59.705Z,100831.34
2023-02-16T00:19:28.943Z,100834.66
2023-02-16T00:21:57.671Z,100829.00
2023-02-16T00:24:26.792Z,100828.00
2023-02-16T00:26:57.330Z,100825.94
2023-02-16T00:29:28.423Z,100825.94
2023-02-16T00:31:57.091Z,100820.59
2023-02-16T00:34:30.825Z,100821.56
2023-02-16T00:37:00.101Z,100818.00
2023-02-16T00:39:28.803Z,100820.47
2023-02-16T00:42:00.379Z,100818.63
2023-02-16T00:44:33.847Z,100826.38
2023-02-16T00:47:03.621Z,100818.19
2023-02-16T00:49:31.480Z,100815.19
2023-02-16T00:51:59.136Z,100812.38
2023-02-16T00:54:26.741Z,100806.88
2023-02-16T00:57:04.846Z,100809.44
2023-02-16T00:59:37.046Z,100810.66
2023-02-16T01:02:07.836Z,100808.13
2023-02-16T01:04:42.184Z,100806.47
2023-02-16T01:07:15.069Z,100807.31
2023-02-16T01:09:44.065Z,100810.78
2023-02-16T01:12:21.750Z,100812.22
2023-02-16T01:14:58.854Z,100803.94
2023-02-16T01:17:31.003Z,100799.22
2023-02-16T01:20:03.710Z,100800.78
2023-02-16T01:22:35.466Z,100800.84
2023-02-16T01:25:03.351Z,100794.81
2023-02-16T01:27:41.062Z,100798.28
2023-02-16T01:30:14.590Z,100800.72
2023-02-16T01:32:42.233Z,100797.34
2023-02-16T01:35:10.685Z,100787.41
2023-02-16T01:37:38.105Z,100797.63
2023-02-16T01:40:06.962Z,100779.59
2023-02-16T01:42:43.657Z,100781.25
2023-02-16T01:45:17.439Z,100778.50
2023-02-16T01:47:50.026Z,100766.91
2023-02-16T01:50:19.279Z,100777.41
2023-02-16T01:52:54.671Z,100775.28
2023-02-16T01:55:25.248Z,100769.19
2023-02-16T01:57:59.391Z,100771.72
2023-02-16T02:00:29.175Z,100777.69
2023-02-16T02:02:59.531Z,100771.56
2023-02-16T02:05:28.936Z,100768.47
2023-02-16T02:08:01.542Z,100763.13
2023-02-16T02:10:35.141Z,100762.69
2023-02-16T02:13:09.141Z,100758.06
2023-02-16T02:15:38.914Z,100762.69
2023-02-16T02:18:06.851Z,100764.06
2023-02-16T02:20:49.757Z,100764.22
2023-02-16T02:23:49.688Z,100766.44
2023-02-16T02:27:04.947Z,100756.91
2023-02-16T02:29:48.397Z,100756.84
2023-02-16T02:32:26.529Z,100760.88
2023-02-16T02:35:16.532Z,100759.13
2023-02-16T02:37:56.471Z,100744.41
2023-02-16T02:40:34.927Z,100743.13
2023-02-16T02:43:14.144Z,100745.47
2023-02-16T02:45:47.100Z,100746.28
2023-02-16T02:48:14.667Z,100756.91
2023-02-16T02:50:47.891Z,100745.06
2023-02-16T02:53:16.352Z,100750.97
2023-02-16T02:55:46.934Z,100749.88
2023-02-16T02:58:17.522Z,100752.44
2023-02-16T03:00:45.956Z,100753.56
2023-02-16T03:03:18.696Z,100751.75
2023-02-16T03:05:50.286Z,100750.63
2023-02-16T03:08:22.382Z,100756.78
2023-02-16T03:10:54.189Z,100755.38
2023-02-16T03:13:24.782Z,100748.31
2023-02-16T03:15:56.029Z,100751.22
2023-02-16T03:18:25.715Z,100766.34
2023-02-16T03:20:53.203Z,100767.91
2023-02-16T03:23:20.432Z,100775.41
2023-02-16T03:25:48.199Z,100778.00
2023-02-16T03:28:19.748Z,100772.50
2023-02-16T03:30:50.622Z,100773.34
2023-02-16T03:33:18.740Z,100779.50
2023-02-16T03:35:46.452Z,100779.44
2023-02-16T03:38:13.800Z,100786.16
2023-02-16T03:40:43.705Z,100784.03
2023-02-16T03:43:10.898Z,100768.75
2023-02-16T03:45:41.092Z,100760.34
2023-02-16T03:48:11.744Z,100751.28
2023-02-16T03:50:38.962Z,100755.63
2023-02-16T03:53:06.215Z,100757.97
2023-02-16T03:55:34.479Z,100759.38
2023-02-16T03:58:02.018Z,100763.09
2023-02-16T04:00:30.106Z,100761.59
2023-02-16T04:02:57.308Z,100769.72
2023-02-16T04:05:26.234Z,100769.03
2023-02-16T04:07:53.409Z,100759.97
2023-02-16T04:10:20.962Z,100762.63
2023-02-16T04:12:48.150Z,100758.03
2023-02-16T04:15:17.650Z,100753.63
2023-02-16T04:17:45.066Z,100758.84
2023-02-16T04:20:14.871Z,100764.81
2023-02-16T04:22:43.752Z,100773.53
2023-02-16T04:25:11.502Z,100779.63
2023-02-16T04:27:39.750Z,100770.69
2023-02-16T04:30:10.574Z,100760.06
2023-02-16T04:32:37.851Z,100755.81
2023-02-16T04:35:05.762Z,100757.09
2023-02-16T04:37:33.010Z,100752.59
2023-02-16T04:40:01.982Z,100743.41
2023-02-16T04:42:29.203Z,100746.88
2023-02-16T04:44:56.390Z,100746.25
2023-02-16T04:47:23.810Z,100731.41
2023-02-16T04:49:51.161Z,100724.16
2023-02-16T04:52:19.033Z,100745.16
2023-02-16T04:54:46.270Z,100741.13
2023-02-16T04:57:15.614Z,100739.41
2023-02-16T04:59:43.199Z,100739.69
2023-02-16T05:02:10.617Z,100750.25
2023-02-16T05:04:37.998Z,100765.78
2023-02-16T05:07:05.202Z,100766.59
2023-02-16T05:09:32.358Z,100768.47
2023-02-16T05:11:59.571Z,100763.59
2023-02-16T05:14:30.417Z,100768.25
2023-02-16T05:16:57.601Z,100771.16
2023-02-16T05:19:24.764Z,100780.16
2023-02-16T05:21:51.921Z,100782.56
2023-02-16T05:24:19.378Z,100782.19
2023-02-16T05:26:46.682Z,100774.06
2023-02-16T05:29:13.832Z,100769.56
2023-02-16T05:31:42.589Z,100777.59
2023-02-16T05:34:09.885Z,100768.94
2023-02-16T05:36:37.103Z,100764.13
2023-02-16T05:39:04.986Z,100764.81
2023-02-16T05:41:32.196Z,100759.06
2023-02-16T05:44:01.197Z,100767.88
2023-02-16T05:46:30.304Z,100773.50
2023-02-16T05:48:59.269Z,100767.16
2023-02-16T05:51:26.608Z,100769.16
2023-02-16T05:53:54.005Z,100776.75
2023-02-16T05:56:21.571Z,100771.22
2023-02-16T05:58:49.243Z,100771.16
2023-02-16T06:01:17.120Z,100766.06
2023-02-16T06:03:44.517Z,100768.41
2023-02-16T06:06:13.388Z,100771.00
2023-02-16T06:08:40.802Z,100777.69
2023-02-16T06:11:08.130Z,100774.63
2023-02-16T06:13:35.348Z,100777.31
2023-02-16T06:16:02.691Z,100784.84
2023-02-16T06:18:29.899Z,100792.44
2023-02-16T06:20:57.262Z,100793.47
2023-02-16T06:23:25.733Z,100787.00
2023-02-16T06:25:52.881Z,100800.16
2023-02-16T06:28:20.036Z,100800.63
2023-02-16T06:30:47.197Z,100801.03
2023-02-16T06:33:14.397Z,100795.44
2023-02-16T06:35:41.556Z,100800.78
2023-02-16T06:38:08.838Z,100791.59
2023-02-16T06:40:37.336Z,100811.03
2023-02-16T06:43:04.488Z,100805.50
2023-02-16T06:45:31.657Z,100793.94
2023-02-16T06:47:58.798Z,100790.81
2023-02-16T06:50:25.997Z,100797.75
2023-02-16T06:52:53.172Z,100792.91
2023-02-16T06:55:20.479Z,100793.28
2023-02-16T06:57:48.981Z,100805.50
2023-02-16T07:00:17.054Z,100800.13
2023-02-16T07:02:44.214Z,100808.34
2023-02-16T07:05:11.409Z,100801.91
2023-02-16T07:07:38.622Z,100809.66
2023-02-16T07:10:08.049Z,100820.22
2023-02-16T07:12:35.294Z,100826.38
2023-02-16T07:15:04.452Z,100826.13
2023-02-16T07:17:31.707Z,100832.13
2023-02-16T07:20:00.090Z,100817.78
2023-02-16T07:22:27.494Z,100815.50
2023-02-16T07:24:54.637Z,100826.09
2023-02-16T07:27:21.786Z,100826.84
2023-02-16T07:29:48.917Z,100830.16
2023-02-16T07:32:17.483Z,100826.41
2023-02-16T07:34:44.718Z,100832.06
2023-02-16T07:37:11.976Z,100838.47
2023-02-16T07:39:39.096Z,100845.94
2023-02-16T07:42:06.262Z,100839.22
2023-02-16T07:44:34.409Z,100838.13
2023-02-16T07:47:01.564Z,100834.59
2023-02-16T07:49:30.091Z,100835.78
2023-02-16T07:51:57.293Z,100835.66
2023-02-16T07:54:24.482Z,100839.34
2023-02-16T07:56:51.659Z,100839.47
2023-02-16T07:59:18.839Z,100832.66
2023-02-16T08:01:45.996Z,100834.66
2023-02-16T08:04:13.226Z,100840.56
2023-02-16T08:06:41.802Z,100840.81
2023-02-16T08:09:08.966Z,100836.03
2023-02-16T08:11:36.135Z,100843.09
2023-02-16T08:14:03.317Z,100840.03
2023-02-16T08:16:31.666Z,100835.78
2023-02-16T08:19:00.046Z,100841.31
2023-02-16T08:21:28.926Z,100836.47
2023-02-16T08:23:58.819Z,100828.00
2023-02-16T08:26:27.672Z,100833.72
2023-02-16T08:28:57.657Z,100827.06
2023-02-16T08:31:26.955Z,100832.78
2023-02-16T08:33:54.634Z,100824.63
2023-02-16T08:36:24.948Z,100825.97
2023-02-16T08:38:53.772Z,100819.34
2023-02-16T08:41:24.205Z,100826.59
2023-02-16T08:43:51.406Z,100829.28
2023-02-16T08:46:18.693Z,100833.28
2023-02-16T08:48:45.893Z,100828.94
2023-02-16T08:51:17.131Z,100830.41
2023-02-16T08:53:44.423Z,100830.50
2023-02-16T08:56:11.617Z,100835.63
2023-02-16T08:58:40.996Z,100826.19
2023-02-16T09:01:09.220Z,100831.19
2023-02-16T09:03:37.121Z,100827.00
2023-02-16T09:06:06.114Z,100832.69
2023-02-16T09:08:34.046Z,100823.59
2023-02-16T09:11:02.398Z,100831.13
2023-02-16T09:13:29.869Z,100832.88
2023-02-16T09:16:03.872Z,100839.41
2023-02-16T09:18:31.165Z,100833.47
2023-02-16T09:21:02.823Z,100833.31
2023-02-16T09:23:30.125Z,100845.97
2023-02-16T09:25:59.869Z,100850.06
2023-02-16T09:28:27.201Z,100849.75
2023-02-16T09:30:54.540Z,100849.19
2023-02-16T09:33:23.037Z,100850.09
2023-02-16T09:35:50.219Z,100850.84
2023-02-16T09:38:17.404Z,100853.97
2023-02-16T09:40:44.992Z,100856.81
2023-02-16T09:43:18.773Z,100856.34
2023-02-16T09:45:50.587Z,100856.72
2023-02-16T09:48:21.575Z,100853.63
2023-02-16T09:50:54.788Z,100850.00
2023-02-16T09:53:32.178Z,100854.97
2023-02-16T09:56:08.165Z,100855.44
2023-02-16T09:58:42.136Z,100849.88
2023-02-16T10:01:21.208Z,100855.88
2023-02-16T10:03:58.978Z,100855.69
2023-02-16T10:06:35.213Z,100857.69
2023-02-16T10:09:07.616Z,100854.50
2023-02-16T10:11:38.990Z,100854.97
2023-02-16T10:14:13.277Z,100847.28
2023-02-16T10:16:45.124Z,100838.78
2023-02-16T10:19:20.157Z,100838.34
2023-02-16T10:21:56.453Z,100843.06
2023-02-16T10:24:26.118Z,100847.13
2023-02-16T10:27:00.442Z,100843.94
2023-02-16T10:29:27.691Z,100847.59
2023-02-16T10:32:08.166Z,100845.50
2023-02-16T10:34:47.484Z,100835.44
2023-02-16T10:37:28.782Z,100837.38
2023-02-16T10:40:13.951Z,100838.63
2023-02-16T10:42:46.590Z,100840.50
2023-02-16T10:45:22.789Z,100837.53
2023-02-16T10:47:50.077Z,100834.00
2023-02-16T10:50:24.702Z,100830.53
2023-02-16T10:52:59.076Z,100823.81
2023-02-16T10:55:26.455Z,100829.75
2023-02-16T10:57:56.051Z,100823.81
2023-02-16T11:00:29.786Z,100819.69
2023-02-16T11:03:01.836Z,100819.63
2023-02-16T11:05:35.933Z,100813.78
2023-02-16T11:08:06.258Z,100809.00
2023-02-16T11:10:40.349Z,100812.09
2023-02-16T11:13:16.974Z,100811.31
2023-02-16T11:15:52.078Z,100798.09
2023-02-16T11:18:32.340Z,100790.09
2023-02-16T11:20:59.536Z,100790.50
2023-02-16T11:23:29.390Z,100782.28
2023-02-16T11:26:00.057Z,100780.59
2023-02-16T11:28:32.090Z,100771.41
2023-02-16T11:31:05.138Z,100761.81
2023-02-16T11:33:32.823Z,100762.78
2023-02-16T11:36:00.443Z,100760.06
2023-02-16T11:38:32.159Z,100755.72
2023-02-16T11:41:02.133Z,100758.34
2023-02-16T11:43:32.684Z,100761.94
2023-02-16T11:46:02.865Z,100761.59
2023-02-16T11:48:31.698Z,100758.03
2023-02-16T11:51:01.037Z,100750.19
2023-02-16T11:53:32.032Z,100744.13
2023-02-16T11:56:27.914Z,100746.00
2023-02-16T11:59:07.572Z,100738.84
2023-02-16T12:01:54.081Z,100743.59
2023-02-16T12:04:41.702Z,100739.53
2023-02-16T12:07:20.562Z,100738.06
2023-02-16T12:09:58.856Z,100727.81
2023-02-16T12:12:33.625Z,100729.75
2023-02-16T12:15:05.955Z,100726.59
2023-02-16T12:17:50.701Z,100727.94
2023-02-16T12:20:33.015Z,100728.91
2023-02-16T12:23:14.146Z,100715.72
2023-02-16T12:25:54.802Z,100714.34
2023-02-16T12:28:32.517Z,100703.94
2023-02-16T12:31:08.612Z,100702.09
2023-02-16T12:33:43.657Z,100706.25
2023-02-16T12:36:31.534Z,100709.63
2023-02-16T12:39:10.335Z,100702.34
2023-02-16T12:41:50.320Z,100694.16
2023-02-16T12:44:24.994Z,100694.75
2023-02-16T12:47:00.178Z,100692.03
2023-02-16T12:49:35.773Z,100683.91
2023-02-16T12:52:09.933Z,100678.63
2023-02-16T12:54:43.206Z,100682.66
2023-02-16T12:57:14.917Z,100676.06
2023-02-16T12:59:46.586Z,100680.78
2023-02-16T13:02:19.761Z,100675.50
2023-02-16T13:04:54.462Z,100675.81
2023-02-16T13:07:29.353Z,100675.34
2023-02-16T13:10:02.017Z,100671.78
2023-02-16T13:12:36.165Z,100671.50
2023-02-16T13:15:10.713Z,100661.34
2023-02-16T13:17:43.128Z,100661.31
2023-02-16T13:20:15.332Z,100658.16
2023-02-16T13:22:56.930Z,100652.31
2023-02-16T13:25:42.566Z,100655.00
2023-02-16T13:28:31.761Z,100652.69
2023-02-16T13:31:14.010Z,100643.09
2023-02-16T13:33:55.900Z,100643.97
2023-02-16T13:36:43.014Z,100641.84
2023-02-16T13:39:25.845Z,100632.41
2023-02-16T13:42:16.209Z,100635.25
2023-02-16T13:44:48.907Z,100627.94
2023-02-16T13:47:20.202Z,100624.38
2023-02-16T13:49:47.712Z,100617.06
2023-02-16T13:52:30.188Z,100613.63
2023-02-16T13:54:59.059Z,100615.88
2023-02-16T13:58:02.273Z,100616.88
2023-02-16T14:00:34.799Z,100607.97
2023-02-16T14:03:05.955Z,100608.66
2023-02-16T14:05:39.074Z,100602.88
2023-02-16T14:08:28.922Z,100600.72
2023-02-16T14:11:05.413Z,100604.75
2023-02-16T14:13:43.492Z,100600.47
2023-02-16T14:16:24.719Z,100604.66
2023-02-16T14:18:57.697Z,100607.22
2023-02-16T14:21:31.713Z,100604.34
2023-02-16T14:24:00.937Z,100601.53
2023-02-16T14:26:28.193Z,100599.66
2023-02-16T14:29:12.500Z,100600.53
2023-02-16T14:31:47.065Z,100599.94
2023-02-16T14:34:21.378Z,100595.25
2023-02-16T14:37:25.631Z,100593.13
2023-02-16T14:40:07.500Z,100593.97
2023-02-16T14:42:36.132Z,100591.88
2023-02-16T14:45:25.709Z,100591.88
2023-02-16T14:48:06.959Z,100587.84
2023-02-16T14:50:47.558Z,100583.25
2023-02-16T14:53:42.871Z,100595.13
2023-02-16T14:56:25.838Z,100588.59
2023-02-16T14:58:59.291Z,100589.28
2023-02-16T15:01:26.533Z,100590.44
2023-02-16T15:03:56.509Z,100589.75
2023-02-16T15:06:32.140Z,100596.47
2023-02-16T15:09:02.308Z,100595.06
2023-02-16T15:11:32.779Z,100597.06
2023-02-16T15:14:08.129Z,100595.94
2023-02-16T15:16:39.511Z,100593.66
2023-02-16T15:19:15.289Z,100583.78
2023-02-16T15:21:42.431Z,100587.53
2023-02-16T15:24:21.838Z,100590.25
2023-02-16T15:26:54.665Z,100583.09
2023-02-16T15:29:24.572Z,100587.81
2023-02-16T15:31:52.829Z,100579.94
2023-02-16T15:34:29.951Z,100582.22
2023-02-16T15:36:57.128Z,100586.22
2023-02-16T15:39:42.720Z,100587.34
2023-02-16T15:42:21.877Z,100575.91
2023-02-16T15:44:49.886Z,100571.88
2023-02-16T15:47:21.712Z,100555.31
2023-02-16T15:49:50.398Z,100545.84
2023-02-16T15:52:20.745Z,100542.28
2023-02-16T15:54:49.664Z,100547.53
2023-02-16T15:57:21.386Z,100547.22
2023-02-16T15:59:51.137Z,100549.94
2023-02-16T16:02:20.162Z,100555.19
2023-02-16T16:04:53.332Z,100555.72
2023-02-16T16:07:26.871Z,100547.41
2023-02-16T16:09:56.149Z,100547.53
2023-02-16T16:12:24.651Z,100547.97
2023-02-16T16:14:54.890Z,100552.94
2023-02-16T16:17:25.385Z,100556.06
2023-02-16T16:19:54.568Z,100555.19
2023-02-16T16:22:32.935Z,100549.44
2023-02-16T16:25:00.696Z,100546.59
2023-02-16T16:27:31.281Z,100552.28
2023-02-16T16:30:24.753Z,100545.84
2023-02-16T16:32:59.320Z,100539.69
2023-02-16T16:35:36.791Z,100541.81
2023-02-16T16:38:04.835Z,100540.34
2023-02-16T16:40:34.739Z,100534.06
2023-02-16T16:43:17.846Z,100547.03
2023-02-16T16:45:47.739Z,100541.16
2023-02-16T16:48:18.725Z,100536.47
2023-02-16T16:50:48.323Z,100532.91
2023-02-16T16:53:51.407Z,100542.16
2023-02-16T16:56:19.801Z,100533.69
2023-02-16T16:58:48.619Z,100534.66
2023-02-16T17:01:15.786Z,100532.69
2023-02-16T17:03:43.370Z,100527.78
2023-02-16T17:06:12.415Z,100530.78
2023-02-16T17:08:39.676Z,100522.91
2023-02-16T17:11:08.063Z,100520.44
2023-02-16T17:13:35.474Z,100528.31
2023-02-16T17:16:06.783Z,100527.72
2023-02-16T17:18:34.105Z,100532.16
2023-02-16T17:21:01.377Z,100530.25
2023-02-16T17:23:29.899Z,100534.91
2023-02-16T17:25:57.249Z,100534.91
2023-02-16T17:28:24.398Z,100530.38
2023-02-16T17:30:51.550Z,100530.09
2023-02-16T17:33:18.686Z,100532.19
2023-02-16T17:35:45.962Z,100539.06
2023-02-16T17:38:17.803Z,100548.19
2023-02-16T17:40:48.094Z,100536.25
2023-02-16T17:43:16.338Z,100542.66
2023-02-16T17:45:44.590Z,100539.94
2023-02-16T17:48:15.817Z,100536.38
2023-02-16T17:50:43.082Z,100537.38
2023-02-16T17:53:12.899Z,100528.63
2023-02-16T17:55:40.171Z,100530.03
2023-02-16T17:58:10.009Z,100523.75
2023-02-16T18:00:37.685Z,100531.16
2023-02-16T18:03:04.905Z,100532.66
2023-02-16T18:05:32.162Z,100527.91
2023-02-16T18:07:59.874Z,100526.03
2023-02-16T18:10:33.915Z,100530.44
2023-02-16T18:13:01.356Z,100525.19
2023-02-16T18:15:30.210Z,100528.28
2023-02-16T18:17:57.915Z,100529.00
2023-02-16T18:20:25.994Z,100527.41
2023-02-16T18:22:53.803Z,100526.03
2023-02-16T18:25:21.320Z,100524.31
2023-02-16T18:27:48.555Z,100523.47
2023-02-16T18:30:16.819Z,100525.19
2023-02-16T18:32:45.432Z,100518.03
2023-02-16T18:35:13.294Z,100523.47
2023-02-16T18:37:41.068Z,100512.91
2023-02-16T18:40:10.541Z,100513.53
2023-02-16T18:42:38.374Z,100508.41
2023-02-16T18:45:06.552Z,100505.84
2023-02-16T18:47:33.733Z,100509.94
2023-02-16T18:50:02.818Z,100502.47
2023-02-16T18:52:30.019Z,100501.47
2023-02-16T18:54:57.369Z,100496.97
2023-02-16T18:57:24.577Z,100493.31
2023-02-16T18:59:51.762Z,100502.66
2023-02-16T19:02:18.935Z,100497.41
2023-02-16T19:04:46.159Z,100508.97
2023-02-16T19:07:14.741Z,100507.59
2023-02-16T19:09:41.894Z,100507.34
2023-02-16T19:12:09.079Z,100506.50
2023-02-16T19:14:36.316Z,100511.06
2023-02-16T19:17:03.935Z,100519.00
2023-02-16T19:19:31.393Z,100513.59
2023-02-16T19:21:58.627Z,100515.22
2023-02-16T19:24:27.236Z,100513.84
2023-02-16T19:26:54.524Z,100510.69
2023-02-16T19:29:21.690Z,100513.88
2023-02-16T19:31:49.042Z,100519.38
2023-02-16T19:34:16.301Z,100508.94
2023-02-16T19:36:43.686Z,100510.41
2023-02-16T19:39:11.158Z,100508.81
2023-02-16T19:41:42.164Z,100504.16
2023-02-16T19:44:12.250Z,100510.91
2023-02-16T19:46:41.049Z,100511.66
2023-02-16T19:49:11.342Z,100504.66
2023-02-16T19:51:38.530Z,100513.75
2023-02-16T19:54:05.745Z,100512.13
2023-02-16T19:56:32.996Z,100516.44
2023-02-16T19:59:01.558Z,100524.28
2023-02-16T20:01:28.928Z,100518.88
2023-02-16T20:03:57.055Z,100518.03
2023-02-16T20:06:26.447Z,100516.81
2023-02-16T20:08:55.508Z,100505.72
2023-02-16T20:11:25.918Z,100514.59
2023-02-16T20:13:54.108Z,100510.16
2023-02-16T20:16:23.600Z,100502.31
2023-02-16T20:18:51.035Z,100496.78
2023-02-16T20:21:20.315Z,100486.06
2023-02-16T20:23:48.321Z,100488.44
2023-02-16T20:26:17.592Z,100485.25
2023-02-16T20:28:45.354Z,100480.81
2023-02-16T20:31:13.432Z,100478.72
2023-02-16T20:33:42.980Z,100471.72
2023-02-16T20:36:11.280Z,100473.69
2023-02-16T20:38:38.593Z,100473.84
2023-02-16T20:41:05.890Z,100479.09
2023-02-16T20:43:34.126Z,100474.44
2023-02-16T20:46:01.837Z,100475.31
2023-02-16T20:48:29.249Z,100477.84
2023-02-16T20:51:00.716Z,100478.00
2023-02-16T20:53:28.411Z,100478.00
2023-02-16T20:56:01.117Z,100473.44
2023-02-16T20:58:28.410Z,100478.13
2023-02-16T21:00:56.061Z,100470.72
2023-02-16T21:03:23.394Z,100471.59
2023-02-16T21:05:50.608Z,100469.63
2023-02-16T21:08:19.242Z,100462.88
2023-02-16T21:10:46.657Z,100461.63
2023-02-16T21:13:14.838Z,100458.44
2023-02-16T21:15:42.006Z,100461.00
2023-02-16T21:18:09.160Z,100454.63
2023-02-16T21:20:36.392Z,100460.38
2023-02-16T21:23:03.589Z,100457.28
2023-02-16T21:25:32.114Z,100452.38
2023-02-16T21:27:59.269Z,100447.31
2023-02-16T21:30:26.486Z,100444.81
2023-02-16T21:32:53.686Z,100445.28
2023-02-16T21:35:20.942Z,100441.72
2023-02-16T21:37:48.099Z,100444.88
2023-02-16T21:40:15.292Z,100444.75
2023-02-16T21:42:43.830Z,100444.75
2023-02-16T21:45:11.049Z,100447.09
2023-02-16T21:47:38.700Z,100442.16
2023-02-16T21:50:06.955Z,100438.44
2023-02-16T21:52:34.109Z,100437.31
2023-02-16T21:55:01.243Z,100435.63
2023-02-16T21:57:28.390Z,100435.22
2023-02-16T21:59:56.895Z,100435.81
2023-02-16T22:02:24.073Z,100429.41
2023-02-16T22:04:51.433Z,100424.28
2023-02-16T22:07:18.610Z,100430.41
2023-02-16T22:09:45.770Z,100428.56
2023-02-16T22:12:12.945Z,100435.44
2023-02-16T22:14:40.114Z,100443.28
2023-02-16T22:17:08.678Z,100433.19
2023-02-16T22:19:35.878Z,100429.34
2023-02-16T22:22:03.041Z,100437.09
2023-02-16T22:24:30.237Z,100434.09
2023-02-16T22:26:57.454Z,100439.00
2023-02-16T22:29:24.589Z,100441.84
2023-02-16T22:31:51.810Z,100433.47
2023-02-16T22:34:21.717Z,100435.03
2023-02-16T22:36:49.436Z,100437.34
2023-02-16T22:39:18.100Z,100439.91
2023-02-16T22:41:45.326Z,100439.78
2023-02-16T22:44:12.552Z,100429.41
2023-02-16T22:46:39.692Z,100431.00
2023-02-16T22:49:06.996Z,100435.16
2023-02-16T22:51:36.394Z,100436.72
2023-02-16T22:54:04.240Z,100440.16
2023-02-16T22:56:31.980Z,100434.63
2023-02-16T22:58:59.745Z,100432.91
2023-02-16T23:01:28.914Z,100443.59
2023-02-16T23:03:58.608Z,100449.00
2023-02-16T23:06:28.211Z,100447.31
2023-02-16T23:08:58.636Z,100460.72
2023-02-16T23:11:27.183Z,100448.75
2023-02-16T23:13:54.451Z,100455.09
2023-02-16T23:16:24.770Z,100458.94
2023-02-16T23:18:52.128Z,100461.91
2023-02-16T23:21:21.622Z,100455.22
2023-02-16T23:23:50.205Z,100448.81
2023-02-16T23:26:20.366Z,100452.97
2023-02-16T23:28:51.210Z,100455.44
2023-02-16T23:31:18.841Z,100451.72
2023-02-16T23:33:46.124Z,100457.44
2023-02-16T23:36:13.395Z,100467.97
2023-02-16T23:38:40.738Z,100463.28
2023-02-16T23:41:12.315Z,100463.03
2023-02-16T23:43:41.442Z,100466.19
2023-02-16T23:46:10.340Z,100467.50
2023-02-16T23:48:37.952Z,100467.22
2023-02-16T23:51:05.750Z,100469.09
2023-02-16T23:53:33.795Z,100454.44
2023-02-16T23:56:02.939Z,100459.00
2023-02-16T23:58:32.536Z,100450.97
